KOFK/OFK METAR and TAF weather

Enter ICAO airport designator
Station Type Date Time Source
KOFK METAR 2020/01/24 08:56 UTC NOAA

KOFK 240856Z AUTO 33015KT 6SM UP BR OVC006 M04/M06 A3005 RMK AO2 SLP195 T10391056 56003 PNO $


Station Type Date Time Source
KOFK Decoded METAR 2020/01/24 08:56 UTC NOAA

KARL STEFAN MEMORIAL AIRPORT, NE, United States (KOFK) 41-59N 097-26W 470M
Jan 24, 2020 - 03:56 AM EST / 2020.01.24 0856 UTC
Wind: from the NNW (330 degrees) at 17 MPH (15 KT):0
Visibility: 6 mile(s):0
Sky conditions: overcast
Weather: precipitation; mist
Temperature: 25.0 F (-3.9 C)
Windchill: 12 F (-11 C):1
Dew Point: 21.9 F (-5.6 C)
Relative Humidity: 87%
Pressure (altimeter): 30.05 in. Hg (1017 hPa)
Pressure tendency: 0.01 inches (0.3 hPa) lower than three hours ago
ob: KOFK 240856Z AUTO 33015KT 6SM UP BR OVC006 M04/M06 A3005 RMK AO2 SLP195 T10391056 56003 PNO
cycle: 9

Station Type Date Time Source
KOFK TAF 2020/01/24 10:34 UTC NOAA

TAF
AMD KOFK 240932Z 2410/2506 33014KT 6SM -SN BR OVC006
FM241200 33011KT P6SM OVC006
FM242300 32007KT P6SM OVC010

Example: see airport list